createdAt,value
2023-02-25T00:01:33.364Z,9.43
2023-02-25T00:03:37.292Z,8.27
2023-02-25T00:05:40.241Z,8.77
2023-02-25T00:07:43.422Z,8.88
2023-02-25T00:09:46.207Z,9.25
2023-02-25T00:11:48.973Z,8.27
2023-02-25T00:13:52.138Z,10.00
2023-02-25T00:15:54.963Z,8.70
2023-02-25T00:17:59.105Z,8.05
2023-02-25T00:20:01.908Z,8.77
2023-02-25T00:22:04.680Z,9.52
2023-02-25T00:24:16.428Z,8.02
2023-02-25T00:26:20.323Z,7.80
2023-02-25T00:28:23.298Z,9.60
2023-02-25T00:30:26.508Z,8.10
2023-02-25T00:32:29.517Z,7.70
2023-02-25T00:34:33.717Z,8.77
2023-02-25T00:36:36.485Z,8.13
2023-02-25T00:38:41.918Z,6.93
2023-02-25T00:40:45.420Z,8.63
2023-02-25T00:42:49.495Z,9.13
2023-02-25T00:44:52.615Z,9.10
2023-02-25T00:46:55.344Z,10.25
2023-02-25T00:48:59.231Z,9.77
2023-02-25T00:51:08.914Z,7.57
2023-02-25T00:53:11.683Z,7.95
2023-02-25T00:55:14.513Z,9.15
2023-02-25T00:57:17.261Z,7.47
2023-02-25T00:59:20.198Z,9.65
2023-02-25T01:01:25.228Z,8.85
2023-02-25T01:03:28.502Z,7.80
2023-02-25T01:05:32.654Z,8.35
2023-02-25T01:07:38.115Z,7.85
2023-02-25T01:09:41.627Z,9.48
2023-02-25T01:11:46.523Z,7.40
2023-02-25T01:13:50.303Z,8.02
2023-02-25T01:15:53.131Z,7.47
2023-02-25T01:17:55.872Z,8.15
2023-02-25T01:20:00.810Z,8.45
2023-02-25T01:22:03.620Z,9.52
2023-02-25T01:24:12.252Z,12.65
2023-02-25T01:26:15.677Z,9.48
2023-02-25T01:28:19.759Z,9.63
2023-02-25T01:30:22.826Z,9.13
2023-02-25T01:32:25.682Z,10.70
2023-02-25T01:34:29.794Z,9.05
2023-02-25T01:36:34.216Z,9.82
2023-02-25T01:38:37.061Z,8.07
2023-02-25T01:40:42.237Z,10.02
2023-02-25T01:42:45.635Z,10.27
2023-02-25T01:45:34.448Z,10.07
2023-02-25T01:47:40.813Z,10.43
2023-02-25T01:49:47.387Z,9.40
2023-02-25T01:51:52.864Z,8.55
2023-02-25T01:53:57.901Z,9.05
2023-02-25T01:56:04.520Z,11.98
2023-02-25T01:58:07.515Z,10.45
2023-02-25T02:00:16.027Z,10.30
2023-02-25T02:02:22.639Z,8.25
2023-02-25T02:04:27.518Z,8.23
2023-02-25T02:06:34.443Z,8.52
2023-02-25T02:08:38.209Z,11.60
2023-02-25T02:10:40.961Z,9.50
2023-02-25T02:12:48.450Z,9.90
2023-02-25T02:14:51.558Z,8.40
2023-02-25T02:17:12.156Z,9.55
2023-02-25T02:19:28.837Z,8.45
2023-02-25T02:21:55.704Z,10.20
2023-02-25T02:24:43.874Z,7.65
2023-02-25T02:27:02.255Z,10.85
2023-02-25T02:29:27.785Z,8.88
2023-02-25T02:31:42.532Z,8.93
2023-02-25T02:33:56.846Z,9.88
2023-02-25T02:36:06.892Z,11.15
2023-02-25T02:38:15.294Z,10.27
2023-02-25T02:40:27.537Z,10.70
2023-02-25T02:42:37.156Z,9.95
2023-02-25T02:44:49.341Z,10.93
2023-02-25T02:46:58.851Z,9.43
2023-02-25T02:49:07.900Z,10.80
2023-02-25T02:51:17.075Z,10.45
2023-02-25T02:53:25.101Z,9.70
2023-02-25T02:55:35.106Z,8.70
2023-02-25T02:57:43.059Z,10.10
2023-02-25T02:59:51.266Z,11.02
2023-02-25T03:02:03.772Z,11.23
2023-02-25T03:04:10.577Z,11.75
2023-02-25T03:06:18.589Z,11.02
2023-02-25T03:08:26.414Z,10.57
2023-02-25T03:10:29.349Z,13.10
2023-02-25T03:12:32.488Z,11.30
2023-02-25T03:14:36.979Z,11.90
2023-02-25T03:16:42.499Z,13.73
2023-02-25T03:18:54.574Z,12.38
2023-02-25T03:20:59.259Z,11.05
2023-02-25T03:23:05.060Z,11.05
2023-02-25T03:25:14.177Z,10.93
2023-02-25T03:27:29.509Z,13.52
2023-02-25T03:29:37.284Z,10.43
2023-02-25T03:31:46.675Z,11.70
2023-02-25T03:33:56.770Z,9.57
2023-02-25T03:36:01.728Z,10.95
2023-02-25T03:38:09.279Z,10.48
2023-02-25T03:40:15.714Z,10.07
2023-02-25T03:42:22.896Z,9.48
2023-02-25T03:44:33.011Z,8.48
2023-02-25T03:46:36.920Z,10.98
2023-02-25T03:48:40.873Z,10.50
2023-02-25T03:50:53.286Z,11.45
2023-02-25T03:52:56.559Z,9.85
2023-02-25T03:55:22.910Z,11.95
2023-02-25T03:57:29.459Z,10.70
2023-02-25T03:59:32.230Z,11.65
2023-02-25T04:01:35.859Z,11.82
2023-02-25T04:03:38.637Z,7.85
2023-02-25T04:05:41.538Z,9.65
2023-02-25T04:07:45.628Z,8.63
2023-02-25T04:09:48.470Z,9.32
2023-02-25T04:11:56.993Z,9.68
2023-02-25T04:13:59.998Z,8.40
2023-02-25T04:16:03.093Z,8.27
2023-02-25T04:18:06.837Z,11.02
2023-02-25T04:20:10.956Z,7.95
2023-02-25T04:22:13.708Z,7.97
2023-02-25T04:24:17.830Z,11.93
2023-02-25T04:26:20.846Z,8.27
2023-02-25T04:28:23.737Z,10.15
2023-02-25T04:30:26.605Z,10.35
2023-02-25T04:32:29.508Z,8.98
2023-02-25T04:34:32.308Z,10.93
2023-02-25T04:36:37.003Z,10.00
2023-02-25T04:38:39.687Z,7.70
2023-02-25T04:40:43.823Z,9.82
2023-02-25T04:42:46.693Z,7.70
2023-02-25T04:44:49.423Z,7.30
2023-02-25T04:46:52.534Z,9.05
2023-02-25T04:48:55.270Z,7.75
2023-02-25T04:51:02.205Z,6.90
2023-02-25T04:53:04.944Z,9.05
2023-02-25T04:55:09.786Z,7.30
2023-02-25T04:57:14.489Z,6.25
2023-02-25T04:59:17.521Z,7.22
2023-02-25T05:01:20.334Z,6.82
2023-02-25T05:03:23.128Z,7.57
2023-02-25T05:05:25.828Z,5.55
2023-02-25T05:07:28.556Z,8.70
2023-02-25T05:09:31.503Z,5.43
2023-02-25T05:11:34.160Z,5.45
2023-02-25T05:13:38.220Z,3.95
2023-02-25T05:15:41.192Z,4.75
2023-02-25T05:17:43.908Z,4.03
2023-02-25T05:19:46.652Z,4.82
2023-02-25T05:21:49.872Z,7.50
2023-02-25T05:23:54.426Z,5.47
2023-02-25T05:25:58.775Z,6.22
2023-02-25T05:28:01.845Z,3.90
2023-02-25T05:30:07.205Z,4.78
2023-02-25T05:32:10.111Z,2.80
2023-02-25T05:34:12.989Z,2.83
2023-02-25T05:36:17.647Z,2.50
2023-02-25T05:38:20.459Z,5.95
2023-02-25T05:40:23.271Z,5.15
2023-02-25T05:42:26.017Z,2.78
2023-02-25T05:44:28.731Z,5.88
2023-02-25T05:46:32.863Z,6.15
2023-02-25T05:48:35.777Z,3.28
2023-02-25T05:50:41.771Z,3.08
2023-02-25T05:52:45.045Z,4.85
2023-02-25T05:54:48.368Z,6.57
2023-02-25T05:56:52.605Z,3.00
2023-02-25T05:58:56.098Z,3.17
2023-02-25T06:00:58.828Z,4.35
2023-02-25T06:03:03.006Z,6.35
2023-02-25T06:05:06.937Z,3.88
2023-02-25T06:07:09.776Z,4.53
2023-02-25T06:09:12.503Z,3.65
2023-02-25T06:11:19.320Z,4.47
2023-02-25T06:13:22.012Z,5.47
2023-02-25T06:15:24.771Z,6.43
2023-02-25T06:17:27.556Z,3.75
2023-02-25T06:19:31.576Z,3.33
2023-02-25T06:21:35.516Z,4.22
2023-02-25T06:23:40.085Z,4.13
2023-02-25T06:25:42.832Z,4.28
2023-02-25T06:27:45.621Z,2.88
2023-02-25T06:29:48.552Z,3.92
2023-02-25T06:31:51.420Z,4.40
2023-02-25T06:33:55.258Z,3.47
2023-02-25T06:35:59.871Z,4.13
2023-02-25T06:38:02.627Z,4.93
2023-02-25T06:40:07.824Z,4.13
2023-02-25T06:42:10.789Z,4.45
2023-02-25T06:44:15.742Z,4.03
2023-02-25T06:46:20.460Z,3.20
2023-02-25T06:48:23.302Z,8.45
2023-02-25T06:50:26.014Z,5.53
2023-02-25T06:52:30.169Z,3.53
2023-02-25T06:54:32.903Z,3.33
2023-02-25T06:56:35.657Z,2.55
2023-02-25T06:58:38.906Z,3.75
2023-02-25T07:00:43.177Z,5.50
2023-02-25T07:02:45.945Z,7.22
2023-02-25T07:04:48.678Z,5.97
2023-02-25T07:06:51.462Z,4.72
2023-02-25T07:08:55.544Z,2.88
2023-02-25T07:11:10.059Z,3.47
2023-02-25T07:13:13.245Z,4.60
2023-02-25T07:15:15.983Z,4.30
2023-02-25T07:17:18.835Z,5.13
2023-02-25T07:19:21.606Z,5.15
2023-02-25T07:21:29.203Z,4.18
2023-02-25T07:23:32.039Z,4.03
2023-02-25T07:25:36.109Z,2.70
2023-02-25T07:27:42.962Z,3.20
2023-02-25T07:29:47.269Z,3.67
2023-02-25T07:31:50.232Z,5.65
2023-02-25T07:33:55.065Z,4.38
2023-02-25T07:35:58.043Z,3.35
2023-02-25T07:38:01.089Z,3.63
2023-02-25T07:40:04.414Z,3.15
2023-02-25T07:42:08.488Z,3.05
2023-02-25T07:44:12.519Z,1.83
2023-02-25T07:46:15.583Z,3.92
2023-02-25T07:48:18.364Z,3.25
2023-02-25T07:50:21.373Z,2.83
2023-02-25T07:52:24.213Z,3.58
2023-02-25T07:54:26.955Z,3.45
2023-02-25T07:56:31.625Z,3.35
2023-02-25T07:58:36.324Z,1.75
2023-02-25T08:00:40.883Z,1.70
2023-02-25T08:02:45.312Z,5.57
2023-02-25T08:04:48.231Z,5.13
2023-02-25T08:06:51.637Z,3.00
2023-02-25T08:08:55.273Z,4.35
2023-02-25T08:10:58.123Z,3.53
2023-02-25T08:13:00.891Z,2.65
2023-02-25T08:15:05.649Z,9.18
2023-02-25T08:17:08.362Z,6.90
2023-02-25T08:19:11.089Z,3.85
2023-02-25T08:21:15.418Z,4.60
2023-02-25T08:23:19.592Z,3.22
2023-02-25T08:25:22.296Z,3.80
2023-02-25T08:27:24.993Z,3.55
2023-02-25T08:29:27.780Z,7.25
2023-02-25T08:31:32.071Z,5.70
2023-02-25T08:33:34.888Z,4.32
2023-02-25T08:35:37.692Z,2.63
2023-02-25T08:37:40.502Z,8.40
2023-02-25T08:39:43.233Z,2.67
2023-02-25T08:41:46.044Z,3.15
2023-02-25T08:43:51.343Z,5.32
2023-02-25T08:45:56.574Z,5.43
2023-02-25T08:48:01.207Z,7.68
2023-02-25T08:50:05.453Z,5.00
2023-02-25T08:52:11.896Z,5.88
2023-02-25T08:54:15.403Z,6.30
2023-02-25T08:56:18.435Z,7.38
2023-02-25T08:58:21.139Z,6.82
2023-02-25T09:00:25.296Z,4.45
2023-02-25T09:02:28.042Z,6.85
2023-02-25T09:04:32.146Z,3.53
2023-02-25T09:06:34.901Z,9.02
2023-02-25T09:08:37.589Z,5.65
2023-02-25T09:10:49.887Z,4.53
2023-02-25T09:12:53.478Z,6.38
2023-02-25T09:14:56.210Z,2.55
2023-02-25T09:16:58.991Z,4.93
2023-02-25T09:19:01.767Z,5.78
2023-02-25T09:21:06.311Z,3.63
2023-02-25T09:23:11.199Z,13.20
2023-02-25T09:25:13.990Z,6.88
2023-02-25T09:27:16.745Z,4.53
2023-02-25T09:29:19.512Z,4.35
2023-02-25T09:31:22.760Z,3.95
2023-02-25T09:33:26.144Z,8.48
2023-02-25T09:35:29.219Z,4.47
2023-02-25T09:37:33.327Z,8.52
2023-02-25T09:39:36.165Z,3.65
2023-02-25T09:41:46.277Z,7.40
2023-02-25T09:43:56.365Z,6.32
2023-02-25T09:46:07.547Z,3.25
2023-02-25T09:48:18.505Z,2.42
2023-02-25T09:50:24.365Z,1.98
2023-02-25T09:52:29.946Z,4.45
2023-02-25T09:54:39.480Z,3.25
2023-02-25T09:56:42.677Z,4.13
2023-02-25T09:58:50.806Z,4.05
2023-02-25T10:01:04.427Z,2.40
2023-02-25T10:03:17.111Z,2.65
2023-02-25T10:05:27.440Z,5.50
2023-02-25T10:07:36.340Z,2.05
2023-02-25T10:09:51.390Z,7.05
2023-02-25T10:12:02.958Z,7.28
2023-02-25T10:14:21.709Z,3.97
2023-02-25T10:16:36.017Z,2.50
2023-02-25T10:18:54.880Z,2.70
2023-02-25T10:21:10.007Z,2.05
2023-02-25T10:23:25.384Z,2.40
2023-02-25T10:25:34.354Z,5.50
2023-02-25T10:27:39.885Z,3.20
2023-02-25T10:29:49.171Z,1.92
2023-02-25T10:31:56.915Z,2.88
2023-02-25T10:34:06.492Z,7.53
2023-02-25T10:36:14.618Z,4.25
2023-02-25T10:38:17.355Z,2.85
2023-02-25T10:40:24.421Z,2.97
2023-02-25T10:42:29.300Z,3.80
2023-02-25T10:44:32.037Z,2.50
2023-02-25T10:46:40.455Z,2.58
2023-02-25T10:48:49.050Z,3.30
2023-02-25T10:51:09.849Z,4.28
2023-02-25T10:53:15.845Z,3.47
2023-02-25T10:55:34.321Z,2.97
2023-02-25T10:57:43.107Z,3.60
2023-02-25T10:59:46.760Z,4.07
2023-02-25T11:01:50.409Z,19.88
2023-02-25T11:03:59.159Z,3.95
2023-02-25T11:06:23.975Z,3.20
2023-02-25T11:08:28.742Z,7.18
2023-02-25T11:10:31.555Z,8.23
2023-02-25T11:12:43.421Z,5.13
2023-02-25T11:14:46.504Z,5.80
2023-02-25T11:16:49.288Z,6.85
2023-02-25T11:18:55.203Z,3.95
2023-02-25T11:21:00.312Z,6.03
2023-02-25T11:23:03.400Z,2.92
2023-02-25T11:25:08.891Z,14.05
2023-02-25T11:27:26.249Z,4.45
2023-02-25T11:29:34.264Z,3.70
2023-02-25T11:31:40.567Z,3.80
2023-02-25T11:33:48.298Z,3.95
2023-02-25T11:35:56.981Z,3.03
2023-02-25T11:38:13.087Z,3.97
2023-02-25T11:40:25.462Z,6.47
2023-02-25T11:42:30.134Z,2.97
2023-02-25T11:44:43.499Z,3.10
2023-02-25T11:46:50.566Z,3.22
2023-02-25T11:48:55.933Z,4.65
2023-02-25T11:51:13.824Z,2.95
2023-02-25T11:53:25.851Z,3.58
2023-02-25T11:55:40.962Z,3.22
2023-02-25T11:57:54.133Z,2.72
2023-02-25T12:00:11.365Z,5.20
2023-02-25T12:02:37.705Z,4.22
2023-02-25T12:04:54.610Z,4.60
2023-02-25T12:07:20.467Z,3.67
2023-02-25T12:10:01.280Z,3.83
2023-02-25T12:12:41.362Z,6.07
2023-02-25T12:15:19.307Z,2.05
2023-02-25T12:17:42.573Z,1.85
2023-02-25T12:20:35.192Z,3.42
2023-02-25T12:23:15.673Z,2.22
2023-02-25T12:25:30.928Z,3.13
2023-02-25T12:27:53.737Z,2.47
2023-02-25T12:30:08.845Z,3.10
2023-02-25T12:32:32.358Z,4.63
2023-02-25T12:34:56.868Z,4.97
2023-02-25T12:37:23.233Z,1.35
2023-02-25T12:39:48.339Z,5.40
2023-02-25T12:42:00.759Z,3.40
2023-02-25T12:44:20.413Z,4.18
2023-02-25T12:46:35.856Z,1.52
2023-02-25T12:49:05.261Z,2.25
2023-02-25T12:51:29.271Z,2.88
2023-02-25T12:53:47.825Z,3.08
2023-02-25T12:56:10.492Z,2.10
2023-02-25T12:58:28.015Z,2.67
2023-02-25T13:00:47.647Z,5.03
2023-02-25T13:03:04.370Z,3.08
2023-02-25T13:05:25.848Z,5.25
2023-02-25T13:07:48.131Z,3.53
2023-02-25T13:10:07.956Z,4.57
2023-02-25T13:12:23.160Z,5.78
2023-02-25T13:14:38.777Z,2.83
2023-02-25T13:16:58.343Z,3.35
2023-02-25T13:19:16.280Z,2.42
2023-02-25T13:21:39.531Z,1.52
2023-02-25T13:24:05.399Z,3.25
2023-02-25T13:26:25.952Z,1.30
2023-02-25T13:28:49.144Z,3.95
2023-02-25T13:30:59.317Z,3.03
2023-02-25T13:33:20.459Z,3.83
2023-02-25T13:35:36.352Z,6.82
2023-02-25T13:37:49.507Z,3.03
2023-02-25T13:40:08.424Z,2.53
2023-02-25T13:42:28.259Z,2.10
2023-02-25T13:44:52.668Z,2.30
2023-02-25T13:47:10.910Z,3.15
2023-02-25T13:49:53.431Z,4.28
2023-02-25T13:52:27.696Z,3.75
2023-02-25T13:54:44.779Z,6.38
2023-02-25T13:57:05.302Z,3.47
2023-02-25T13:59:34.746Z,7.47
2023-02-25T14:01:50.000Z,6.90
2023-02-25T14:04:23.438Z,4.65
2023-02-25T14:06:40.437Z,4.75
2023-02-25T14:09:03.117Z,5.93
2023-02-25T14:11:26.867Z,4.03
2023-02-25T14:13:58.339Z,6.88
2023-02-25T14:16:08.480Z,3.60
2023-02-25T14:18:32.174Z,4.70
2023-02-25T14:20:47.010Z,2.78
2023-02-25T14:22:55.009Z,5.10
2023-02-25T14:25:07.969Z,6.53
2023-02-25T14:27:25.973Z,2.97
2023-02-25T14:29:35.729Z,2.83
2023-02-25T14:31:52.588Z,3.00
2023-02-25T14:34:22.020Z,3.13
2023-02-25T14:37:00.578Z,4.22
2023-02-25T14:39:29.481Z,5.55
2023-02-25T14:41:46.479Z,3.45
2023-02-25T14:43:54.636Z,2.03
2023-02-25T14:46:03.797Z,3.58
2023-02-25T14:48:13.498Z,4.40
2023-02-25T14:50:21.394Z,2.42
2023-02-25T14:52:53.381Z,2.15
2023-02-25T14:55:17.711Z,4.18
2023-02-25T14:57:43.848Z,2.33
2023-02-25T15:00:12.098Z,3.90
2023-02-25T15:02:47.165Z,2.70
2023-02-25T15:05:16.623Z,2.45
2023-02-25T15:07:38.518Z,2.33
2023-02-25T15:10:17.684Z,2.33
2023-02-25T15:12:37.001Z,4.60
2023-02-25T15:15:10.136Z,3.42
2023-02-25T15:17:46.365Z,4.32
2023-02-25T15:20:05.104Z,2.67
2023-02-25T15:22:26.219Z,2.30
2023-02-25T15:24:46.845Z,4.55
2023-02-25T15:26:50.294Z,3.58
2023-02-25T15:28:54.782Z,2.63
2023-02-25T15:31:32.919Z,3.25
2023-02-25T15:33:39.604Z,5.38
2023-02-25T15:36:00.392Z,4.20
2023-02-25T15:38:09.443Z,5.03
2023-02-25T15:40:44.913Z,2.90
2023-02-25T15:42:50.545Z,3.38
2023-02-25T15:44:53.741Z,3.83
2023-02-25T15:47:20.115Z,2.92
2023-02-25T15:49:31.262Z,1.92
2023-02-25T15:51:45.162Z,2.58
2023-02-25T15:53:48.987Z,2.05
2023-02-25T15:55:53.348Z,3.83
2023-02-25T15:57:56.028Z,3.42
2023-02-25T15:59:58.702Z,4.45
2023-02-25T16:02:01.464Z,4.40
2023-02-25T16:04:23.532Z,4.93
2023-02-25T16:06:35.008Z,2.55
2023-02-25T16:08:42.384Z,3.67
2023-02-25T16:10:49.193Z,8.38
2023-02-25T16:12:55.646Z,3.70
2023-02-25T16:14:59.474Z,4.43
2023-02-25T16:17:06.312Z,7.05
2023-02-25T16:19:13.501Z,5.65
2023-02-25T16:21:23.692Z,7.25
2023-02-25T16:23:28.964Z,2.83
2023-02-25T16:25:39.682Z,4.78
2023-02-25T16:27:54.766Z,3.90
2023-02-25T16:30:08.387Z,3.42
2023-02-25T16:32:23.793Z,3.22
2023-02-25T16:34:31.560Z,4.57
2023-02-25T16:36:40.595Z,5.13
2023-02-25T16:38:51.623Z,4.15
2023-02-25T16:40:54.982Z,5.90
2023-02-25T16:42:59.701Z,3.78
2023-02-25T16:45:05.907Z,4.50
2023-02-25T16:47:23.579Z,3.13
2023-02-25T16:49:31.558Z,5.88
2023-02-25T16:51:38.165Z,4.03
2023-02-25T16:53:46.387Z,3.97
2023-02-25T16:55:49.579Z,2.80
2023-02-25T16:58:07.750Z,4.35
2023-02-25T17:00:19.913Z,4.47
2023-02-25T17:02:25.081Z,2.65
2023-02-25T17:04:31.543Z,5.38
2023-02-25T17:06:34.301Z,3.42
2023-02-25T17:08:39.683Z,13.15
2023-02-25T17:10:48.047Z,11.82
2023-02-25T17:12:50.919Z,10.13
2023-02-25T17:14:54.121Z,10.90
2023-02-25T17:16:57.528Z,12.18
2023-02-25T17:19:04.308Z,7.72
2023-02-25T17:21:16.681Z,6.03
2023-02-25T17:23:19.634Z,7.30
2023-02-25T17:25:27.297Z,9.63
2023-02-25T17:27:31.667Z,6.20
2023-02-25T17:29:36.627Z,10.52
2023-02-25T17:31:45.161Z,11.75
2023-02-25T17:33:49.577Z,9.52
2023-02-25T17:35:55.602Z,8.05
2023-02-25T17:37:58.588Z,10.25
2023-02-25T17:40:04.417Z,8.68
2023-02-25T17:42:28.360Z,10.68
2023-02-25T17:44:50.262Z,8.02
2023-02-25T17:46:53.923Z,8.98
2023-02-25T17:48:59.256Z,8.70
2023-02-25T17:51:07.746Z,7.18
2023-02-25T17:53:39.162Z,9.82
2023-02-25T17:55:41.819Z,26.08
2023-02-25T17:57:44.548Z,23.38
2023-02-25T17:59:53.366Z,9.25
2023-02-25T18:01:58.404Z,3.80
2023-02-25T18:04:06.820Z,7.85
2023-02-25T18:06:28.778Z,5.20
2023-02-25T18:08:32.371Z,4.03
2023-02-25T18:10:55.376Z,8.60
2023-02-25T18:12:59.240Z,4.57
2023-02-25T18:15:05.999Z,3.40
2023-02-25T18:17:14.799Z,3.85
2023-02-25T18:19:27.700Z,3.80
2023-02-25T18:21:30.483Z,4.82
2023-02-25T18:23:33.290Z,4.18
2023-02-25T18:25:38.669Z,3.60
2023-02-25T18:27:41.758Z,3.40
2023-02-25T18:29:44.476Z,3.17
2023-02-25T18:31:48.676Z,7.30
2023-02-25T18:33:52.704Z,4.03
2023-02-25T18:35:57.321Z,5.75
2023-02-25T18:38:01.290Z,3.95
2023-02-25T18:40:04.760Z,5.45
2023-02-25T18:42:07.548Z,6.05
2023-02-25T18:44:14.555Z,5.03
2023-02-25T18:46:17.348Z,6.20
2023-02-25T18:48:21.583Z,6.20
2023-02-25T18:50:25.490Z,6.00
2023-02-25T18:52:28.286Z,4.70
2023-02-25T18:54:31.074Z,4.55
2023-02-25T18:56:34.220Z,4.97
2023-02-25T18:58:36.979Z,4.35
2023-02-25T19:00:39.878Z,3.72
2023-02-25T19:02:48.453Z,5.18
2023-02-25T19:04:53.146Z,4.93
2023-02-25T19:06:55.904Z,4.80
2023-02-25T19:09:00.107Z,4.15
2023-02-25T19:11:02.890Z,4.05
2023-02-25T19:13:08.515Z,3.90
2023-02-25T19:15:15.410Z,4.05
2023-02-25T19:17:18.279Z,4.78
2023-02-25T19:19:21.013Z,3.92
2023-02-25T19:21:25.150Z,3.13
2023-02-25T19:23:28.954Z,2.47
2023-02-25T19:25:35.124Z,2.47
2023-02-25T19:27:37.904Z,4.57
2023-02-25T19:29:40.655Z,4.90
2023-02-25T19:31:43.544Z,4.57
2023-02-25T19:33:46.770Z,3.72
2023-02-25T19:35:49.589Z,3.95
2023-02-25T19:37:54.152Z,2.92
2023-02-25T19:39:56.886Z,2.80
2023-02-25T19:41:59.624Z,3.63
2023-02-25T19:44:02.343Z,6.07
2023-02-25T19:46:09.513Z,4.50
2023-02-25T19:48:12.523Z,3.17
2023-02-25T19:50:16.693Z,8.32
2023-02-25T19:52:19.665Z,8.32
2023-02-25T19:54:25.976Z,8.80
2023-02-25T19:56:28.763Z,5.50
2023-02-25T19:58:31.885Z,7.60
2023-02-25T20:00:34.723Z,3.97
2023-02-25T20:02:37.687Z,5.88
2023-02-25T20:04:40.619Z,2.63
2023-02-25T20:06:43.499Z,3.35
2023-02-25T20:08:52.322Z,4.60
2023-02-25T20:10:56.391Z,4.50
2023-02-25T20:12:59.141Z,4.53
2023-02-25T20:15:01.898Z,10.82
2023-02-25T20:17:05.012Z,9.38
2023-02-25T20:19:08.390Z,7.72
2023-02-25T20:21:11.177Z,6.30
2023-02-25T20:23:14.036Z,6.57
2023-02-25T20:25:17.093Z,2.90
2023-02-25T20:27:21.318Z,4.20
2023-02-25T20:29:24.498Z,3.65
2023-02-25T20:31:28.398Z,3.83
2023-02-25T20:33:31.139Z,5.07
2023-02-25T20:35:34.616Z,2.90
2023-02-25T20:37:44.124Z,3.83
2023-02-25T20:39:53.389Z,3.33
2023-02-25T20:41:56.377Z,6.30
2023-02-25T20:44:00.784Z,3.95
2023-02-25T20:46:03.818Z,6.20
2023-02-25T20:48:07.020Z,5.70
2023-02-25T20:50:11.092Z,6.15
2023-02-25T20:52:15.670Z,5.43
2023-02-25T20:54:19.650Z,5.90
2023-02-25T20:56:25.279Z,7.55
2023-02-25T20:58:28.230Z,4.50
2023-02-25T21:00:32.298Z,4.18
2023-02-25T21:02:35.064Z,4.85
2023-02-25T21:04:38.071Z,4.93
2023-02-25T21:06:40.923Z,6.78
2023-02-25T21:08:43.800Z,4.50
2023-02-25T21:10:46.856Z,3.97
2023-02-25T21:12:49.666Z,3.80
2023-02-25T21:14:53.236Z,4.55
2023-02-25T21:16:57.496Z,6.20
2023-02-25T21:19:01.143Z,3.90
2023-02-25T21:21:07.626Z,2.53
2023-02-25T21:23:11.372Z,4.15
2023-02-25T21:25:14.192Z,6.40
2023-02-25T21:27:17.354Z,8.82
2023-02-25T21:29:21.581Z,4.13
2023-02-25T21:31:24.557Z,3.95
2023-02-25T21:33:29.069Z,3.65
2023-02-25T21:35:32.501Z,5.93
2023-02-25T21:37:35.253Z,6.00
2023-02-25T21:39:38.164Z,6.20
2023-02-25T21:41:44.265Z,4.32
2023-02-25T21:43:47.427Z,5.50
2023-02-25T21:45:54.205Z,4.50
2023-02-25T21:47:56.955Z,2.50
2023-02-25T21:50:01.019Z,5.57
2023-02-25T21:52:03.992Z,6.53
2023-02-25T21:54:07.151Z,5.35
2023-02-25T21:56:11.664Z,4.93
2023-02-25T21:58:15.113Z,5.25
2023-02-25T22:00:18.773Z,4.65
2023-02-25T22:02:21.582Z,4.53
2023-02-25T22:04:24.408Z,4.85
2023-02-25T22:06:29.253Z,3.28
2023-02-25T22:08:32.001Z,2.65
2023-02-25T22:10:35.307Z,2.90
2023-02-25T22:12:38.130Z,4.85
2023-02-25T22:14:40.839Z,5.43
2023-02-25T22:16:43.615Z,4.95
2023-02-25T22:18:46.548Z,2.28
2023-02-25T22:20:49.659Z,2.22
2023-02-25T22:22:53.737Z,3.03
2023-02-25T22:24:56.719Z,3.85
2023-02-25T22:26:59.449Z,4.38
2023-02-25T22:29:04.794Z,6.70
2023-02-25T22:31:10.340Z,4.75
2023-02-25T22:33:13.133Z,2.35
2023-02-25T22:35:16.032Z,4.13
2023-02-25T22:37:18.785Z,2.72
2023-02-25T22:39:23.015Z,2.85
2023-02-25T22:41:28.164Z,3.22
2023-02-25T22:43:31.227Z,2.50
2023-02-25T22:45:33.950Z,3.30
2023-02-25T22:47:36.744Z,2.83
2023-02-25T22:49:39.500Z,3.92
2023-02-25T22:51:43.644Z,2.80
2023-02-25T22:53:46.402Z,3.65
2023-02-25T22:55:50.524Z,2.97
2023-02-25T22:57:53.248Z,3.92
2023-02-25T22:59:55.994Z,5.13
2023-02-25T23:01:59.502Z,3.67
2023-02-25T23:04:02.871Z,6.75
2023-02-25T23:06:06.952Z,7.18
2023-02-25T23:08:09.766Z,2.17
2023-02-25T23:10:12.984Z,3.80
2023-02-25T23:12:17.560Z,3.65
2023-02-25T23:14:20.354Z,3.67
2023-02-25T23:16:25.898Z,3.83
2023-02-25T23:18:28.870Z,5.53
2023-02-25T23:20:32.465Z,2.88
2023-02-25T23:22:35.505Z,6.45
2023-02-25T23:24:38.245Z,3.80
2023-02-25T23:26:42.257Z,4.65
2023-02-25T23:28:47.314Z,4.35
2023-02-25T23:30:50.147Z,4.13
2023-02-25T23:32:53.059Z,5.28
2023-02-25T23:34:55.784Z,5.60
2023-02-25T23:36:58.819Z,3.53
2023-02-25T23:39:02.805Z,6.00
2023-02-25T23:41:05.924Z,5.38
2023-02-25T23:43:08.737Z,5.95
2023-02-25T23:45:14.886Z,5.80
2023-02-25T23:47:19.429Z,5.50
2023-02-25T23:49:23.355Z,5.70
2023-02-25T23:51:26.941Z,4.43
2023-02-25T23:53:29.753Z,4.75
2023-02-25T23:55:32.721Z,2.72
2023-02-25T23:57:35.966Z,3.90
2023-02-25T23:59:38.749Z,4.80
